Terminal Aerodrome Forecast
Issued by NWS Wilmington, NC

Home | Current Version | Previous Version | Text Only | Print | Product List | Glossary On
Versions: 1 2 3 4 5 6 7 8 9 10 11 12 13 14 15 16 17 18 19 20 21 22 23 24 25
000
FTUS42 KILM 251204 CCB
TAFILM
TAF COR
KILM 251204Z 2512/2612 08005KT P6SM VCSH SCT020 BKN050
      TEMPO 2512/2515 BKN020
     FM251500 11007KT P6SM VCSH BKN035 BKN060
     FM251900 14008KT P6SM SCT035 BKN080
     FM260000 18004KT P6SM SCT025 SCT120 BKN200
     FM260800 18003KT P6SM VCSH BKN020 BKN100=

USA.gov is the U.S. government's official web portal to all federal, state and local government web resources and services.